In Rescue
 
Open Full Screen Window  High Contrast Mode
Wind Gusting 00 knots
06
February 02, 2023 6:35 PM EST
Weather Information
Wind Direction
  250 °
Wind Speed
  06 kt (7 mph)
Wind Gust
  00 kt (0 mph)
Altimeter
29.92 in
Visibility
10 SM
Temperature
00° C
32° F
Dewpoint
-11° C
12° F
Humidity
44%
1hr Rain Fall
00.00 in.
24hr Rain Fall
00.00 in.
Sky Condition
Clear
VFR

METAR KPOV 022335Z AUTO 25006KT 10SM CLR 00/M11 A2992 RMK AO2 T10011113 PWINO

FAA Disclaimer: The data displayed is for advisory purposes only and is not to be used for flight planning or operations.